6R3

Cleveland Municipal Airport

Cleveland, Texas, USA
METAR K6R3 201815Z AUTO 00000KT 10SM CLR 17/05 A3026 RMK AO2 T01740047
Observed Flight Rules
Apr-20 @ 18:15 UTC (14 minutes ago) Visual Flight Rules
Visibility Clouds
10 miles
  • Clear skies
Temperatures Readings
Current 17°C / 63°F
Dewpoint 5°C / 41°F
Humidity 45%
Altimeter 30.26" Hg
Pressure 1025 hPa
Elevation 46
METAR K6R3 201815Z AUTO 00000KT 10SM CLR 17/05 A3026 RMK AO2 T01740047
Observed Flight Rules
Apr-20 @ 18:15 UTC
(14 minutes ago)
VFR
Clouds
  • Clear skies
Temperature Dewpoint
17°C / 63°F 5°C / 41°F
Humidity Altimeter Pressure
45% 30.26" Hg 1025 hPa